M I D A S
Marine Information and Data Acquisition System
Tripno 2238 of the Zeeleeuw from 2011-09-09 06:38:40 to 2011-09-09 13:12:56
Back to CruiseResearch ActivitiesStationsMapUnderway DataData graphs

EquipmentUnitsComment
TimeDGPSUTC
LatitudeDGPSDM.mWGS84
LongitudeDGPSDM.mWGS84
HeadingGyrodeg 
SOGDGPSknotsSpeed over ground
COGDGPSdegCourse over ground
DepthEcho soundermeters200 kHz
Missing or incorrect values are displayed as -999
Navigation data collected by the RV Zeeleeuw from 2011-09-09 06:28:33 to 2011-09-09 13:12:09
                                                                                    Next 1000 lines
Time Latitude Longitude Heading SOG COG Depth
2011-09-09 06:28:44 51°13.635 2°56.019 112.6 0.1 181 7.3
2011-09-09 06:28:49 51°13.635 2°56.019 111.2 0.1 204 7.3
2011-09-09 06:28:53 51°13.635 2°56.019 110.1 0.1 216 7.3
2011-09-09 06:28:58 51°13.635 2°56.019 108.8 0.1 279 7.4
2011-09-09 06:29:04 51°13.635 2°56.018 107.8 0.3 273 7.5
2011-09-09 06:29:09 51°13.635 2°56.017 107.1 0.6 291 7.3
2011-09-09 06:29:13 51°13.635 2°56.015 106.8 1.2 285 7.2
2011-09-09 06:29:19 51°13.636 2°56.011 106.8 1.6 289 7.4
2011-09-09 06:29:24 51°13.637 2°56.007 107.5 2.1 289 7.6
2011-09-09 06:29:29 51°13.638 2°56.001 108.1 2.7 290 -999
2011-09-09 06:29:35 51°13.64 2°55.993 108.3 3.3 292 -999
2011-09-09 06:29:41 51°13.643 2°55.984 109 3.7 292 -999
2011-09-09 06:29:46 51°13.645 2°55.976 109.3 4 291 -999
2011-09-09 06:29:52 51°13.647 2°55.965 109.7 4.2 292 -999
2011-09-09 06:29:57 51°13.65 2°55.957 109.8 4.3 292 -999
2011-09-09 06:30:02 51°13.652 2°55.948 110.3 4.3 293 -999
2011-09-09 06:30:07 51°13.654 2°55.939 110.7 4.3 293 -999
2011-09-09 06:30:12 51°13.656 2°55.93 111.5 4.4 292 -999
2011-09-09 06:30:17 51°13.659 2°55.921 112.6 4.4 293 -999
2011-09-09 06:30:22 51°13.661 2°55.912 114 4.4 294 -999
2011-09-09 06:30:27 51°13.664 2°55.904 115.4 4.4 296 -999
2011-09-09 06:30:32 51°13.667 2°55.895 116.8 4.4 297 -999
2011-09-09 06:30:37 51°13.669 2°55.886 118.3 4.5 298 -999
2011-09-09 06:30:42 51°13.672 2°55.877 119.6 4.7 299 -999
2011-09-09 06:30:47 51°13.676 2°55.868 120.8 4.7 301 -999
2011-09-09 06:30:52 51°13.679 2°55.859 122.1 4.8 302 -999
2011-09-09 06:30:57 51°13.683 2°55.85 123.5 4.9 303 -999
2011-09-09 06:31:02 51°13.687 2°55.841 124.9 4.9 304 -999
2011-09-09 06:31:07 51°13.691 2°55.832 126 5 306 -999
2011-09-09 06:31:12 51°13.695 2°55.823 127.1 5.1 307 -999
2011-09-09 06:31:17 51°13.699 2°55.814 128.1 5.1 308 -999
2011-09-09 06:31:22 51°13.704 2°55.805 129.1 5.1 309 -999
2011-09-09 06:31:27 51°13.709 2°55.797 130 5.2 311 -999
2011-09-09 06:31:32 51°13.713 2°55.788 131.3 5.3 312 -999
2011-09-09 06:31:37 51°13.719 2°55.779 132.1 5.3 313 -999
2011-09-09 06:31:42 51°13.724 2°55.771 132.9 5.4 314 -999
2011-09-09 06:31:47 51°13.729 2°55.762 133.6 5.4 315 -999
2011-09-09 06:31:52 51°13.734 2°55.754 134 5.4 315 -999
2011-09-09 06:31:57 51°13.74 2°55.745 134.4 5.5 316 -999
2011-09-09 06:32:02 51°13.745 2°55.737 134.9 5.5 316 -999
2011-09-09 06:32:07 51°13.751 2°55.728 135.5 5.6 316 -999
2011-09-09 06:32:12 51°13.757 2°55.72 136.2 5.6 316 -999
2011-09-09 06:32:17 51°13.762 2°55.711 136.8 5.6 317 -999
2011-09-09 06:32:22 51°13.768 2°55.703 137.5 5.7 318 -999
2011-09-09 06:32:27 51°13.774 2°55.695 138.3 5.7 319 -999
2011-09-09 06:32:32 51°13.78 2°55.687 139.1 5.7 320 -999
2011-09-09 06:32:37 51°13.786 2°55.679 140.1 5.8 320 -999
2011-09-09 06:32:42 51°13.792 2°55.67 141.1 5.7 321 -999
2011-09-09 06:32:47 51°13.799 2°55.663 142.4 5.6 323 -999
2011-09-09 06:32:52 51°13.805 2°55.656 143.9 5.6 325 -999
2011-09-09 06:32:57 51°13.811 2°55.649 145.7 5.6 326 -999
2011-09-09 06:33:02 51°13.818 2°55.642 147.7 5.5 328 -999
2011-09-09 06:33:07 51°13.824 2°55.636 149.7 5.4 330 -999
2011-09-09 06:33:12 51°13.831 2°55.63 151.8 5.4 332 -999
2011-09-09 06:33:17 51°13.837 2°55.625 154 5.3 333 -999
2011-09-09 06:33:22 51°13.844 2°55.62 156.1 5.3 335 -999
2011-09-09 06:33:27 51°13.851 2°55.616 158.3 5.2 337 -999
2011-09-09 06:33:32 51°13.857 2°55.612 160.6 5.2 339 -999
2011-09-09 06:33:37 51°13.864 2°55.608 163 5.1 342 -999
2011-09-09 06:33:42 51°13.871 2°55.605 165.3 5.1 344 -999
2011-09-09 06:33:47 51°13.878 2°55.602 167.8 5.1 347 -999
2011-09-09 06:33:52 51°13.885 2°55.6 170.5 5 349 -999
2011-09-09 06:33:57 51°13.891 2°55.599 173.3 4.9 351 -999
2011-09-09 06:34:02 51°13.898 2°55.598 175.9 4.8 354 -999
2011-09-09 06:34:07 51°13.904 2°55.597 178.6 4.6 357 -999
2011-09-09 06:34:12 51°13.911 2°55.596 181.2 4.4 -999 -999
2011-09-09 06:34:17 51°13.916 2°55.597 183.7 4.3 1 -999
2011-09-09 06:34:22 51°13.922 2°55.597 186 4 3 -999
2011-09-09 06:34:27 51°13.927 2°55.598 188.1 3.9 5 -999
2011-09-09 06:34:32 51°13.933 2°55.599 190.2 3.7 7 -999
2011-09-09 06:34:37 51°13.938 2°55.6 192.4 3.6 9 -999
2011-09-09 06:34:42 51°13.942 2°55.602 193.6 3.5 10 11.7
2011-09-09 06:34:47 51°13.947 2°55.603 195.3 3.4 12 11.8
2011-09-09 06:34:52 51°13.951 2°55.605 197.3 3.3 14 11.8
2011-09-09 06:34:57 51°13.955 2°55.607 199 3.1 16 -999
2011-09-09 06:35:01 51°13.958 2°55.608 201.4 3 18 12
2011-09-09 06:35:06 51°13.962 2°55.61 203.5 2.9 20 11.7
2011-09-09 06:35:11 51°13.966 2°55.612 205.2 2.8 20 11.6
2011-09-09 06:35:16 51°13.968 2°55.614 207 2.4 23 11.6
2011-09-09 06:35:21 51°13.971 2°55.616 208.8 1.9 21 -999
2011-09-09 06:35:25 51°13.972 2°55.617 211.7 1.4 19 11.8
2011-09-09 06:35:30 51°13.974 2°55.617 214.9 0.9 11 11.8
2011-09-09 06:35:35 51°13.974 2°55.617 217.8 0.5 352 -999
2011-09-09 06:35:40 51°13.975 2°55.616 222.2 0.4 304 11.7
2011-09-09 06:35:45 51°13.975 2°55.615 227.4 0.6 277 11.8
2011-09-09 06:35:50 51°13.974 2°55.613 234.1 0.8 264 -999
2011-09-09 06:35:55 51°13.974 2°55.611 240.2 1.1 265 11.7
2011-09-09 06:36:00 51°13.974 2°55.608 246.1 1.3 266 11.7
2011-09-09 06:36:05 51°13.974 2°55.605 250.7 1.5 268 11.5
2011-09-09 06:36:09 51°13.974 2°55.602 256.2 1.7 270 11.4
2011-09-09 06:36:14 51°13.974 2°55.598 262.9 1.9 276 -999
2011-09-09 06:36:20 51°13.975 2°55.592 268.6 2.1 278 11.7
2011-09-09 06:36:25 51°13.976 2°55.587 274.1 2.3 284 11.6
2011-09-09 06:36:29 51°13.977 2°55.583 280 2.5 288 11.6
2011-09-09 06:36:35 51°13.978 2°55.577 286.1 2.7 294 11.3
2011-09-09 06:36:40 51°13.98 2°55.572 291.9 2.8 299 11.5
2011-09-09 06:36:45 51°13.983 2°55.566 296.6 3 306 10.9
2011-09-09 06:36:49 51°13.985 2°55.562 302.6 3.1 310 11.3
2011-09-09 06:36:54 51°13.988 2°55.557 308.9 3.2 316 -999
2011-09-09 06:36:59 51°13.992 2°55.553 315.4 3.4 322 11.5
2011-09-09 06:37:04 51°13.995 2°55.548 321.6 3.5 327 11.3
2011-09-09 06:37:09 51°14 2°55.544 326.3 3.6 328 11.3
2011-09-09 06:37:13 51°14.003 2°55.541 328.8 3.7 330 11.4
2011-09-09 06:37:19 51°14.009 2°55.536 330.2 3.9 330 -999
2011-09-09 06:37:24 51°14.014 2°55.532 331 4.1 332 11.8
2011-09-09 06:37:29 51°14.019 2°55.527 331.6 4.2 332 11.6
2011-09-09 06:37:34 51°14.024 2°55.523 331.7 4.4 332 11.5
2011-09-09 06:37:39 51°14.03 2°55.518 331.7 4.5 333 10.9
2011-09-09 06:37:44 51°14.036 2°55.513 331.7 4.7 333 11.3
2011-09-09 06:37:49 51°14.042 2°55.509 331.8 4.8 333 11.5
2011-09-09 06:37:53 51°14.046 2°55.505 331.8 4.9 333 11.4
2011-09-09 06:37:58 51°14.053 2°55.5 331.8 5 333 11.4
2011-09-09 06:38:04 51°14.061 2°55.494 331.9 5.1 333 -999
2011-09-09 06:38:09 51°14.067 2°55.489 331.9 5.2 333 11.3
2011-09-09 06:38:14 51°14.073 2°55.483 332.1 5.3 333 11.3
2011-09-09 06:38:19 51°14.08 2°55.478 332.3 5.4 333 -999
2011-09-09 06:38:24 51°14.086 2°55.472 332.4 5.4 333 11.3
2011-09-09 06:38:29 51°14.093 2°55.467 332.4 5.5 333 11.5
2011-09-09 06:38:34 51°14.1 2°55.461 332.6 5.6 333 11.3
2011-09-09 06:38:39 51°14.107 2°55.455 332.9 5.7 333 11.2
2011-09-09 06:38:44 51°14.114 2°55.449 332.7 5.8 332 11.2
2011-09-09 06:38:49 51°14.122 2°55.444 332.5 5.9 333 11.2
2011-09-09 06:38:54 51°14.13 2°55.438 332.5 5.9 332 11.2
2011-09-09 06:38:59 51°14.137 2°55.431 332.5 6 333 -999
2011-09-09 06:39:04 51°14.145 2°55.425 332.5 6.1 332 11.2
2011-09-09 06:39:09 51°14.152 2°55.419 332.1 6.2 332 11.2
2011-09-09 06:39:13 51°14.158 2°55.413 331.8 6.3 332 -999
2011-09-09 06:39:19 51°14.167 2°55.405 331.8 6.5 332 -999
2011-09-09 06:39:24 51°14.175 2°55.398 331.5 6.7 331 -999
2011-09-09 06:39:29 51°14.183 2°55.39 331.5 6.8 332 11.3
2011-09-09 06:39:34 51°14.192 2°55.383 331.6 6.9 331 11.2
2011-09-09 06:39:39 51°14.2 2°55.376 331.6 7 332 11.2
2011-09-09 06:39:44 51°14.208 2°55.368 331.1 7.1 330 11.2
2011-09-09 06:39:49 51°14.217 2°55.36 330.5 7.1 330 11.2
2011-09-09 06:39:53 51°14.224 2°55.354 330.4 7.2 331 -999
2011-09-09 06:39:59 51°14.235 2°55.344 329.9 7.3 329 -999
2011-09-09 06:40:04 51°14.244 2°55.336 329.6 7.3 330 -999
2011-09-09 06:40:09 51°14.252 2°55.328 329.6 7.4 330 10.5
2011-09-09 06:40:14 51°14.261 2°55.319 329.6 7.4 330 10.9
2011-09-09 06:40:19 51°14.27 2°55.311 329.6 7.5 330 10.5
2011-09-09 06:40:24 51°14.279 2°55.303 329.8 7.5 330 11.3
2011-09-09 06:40:29 51°14.288 2°55.294 330 7.6 330 -999
2011-09-09 06:40:34 51°14.297 2°55.286 330 7.8 330 -999
2011-09-09 06:40:39 51°14.307 2°55.277 329.7 8.1 330 11.2
2011-09-09 06:40:44 51°14.317 2°55.268 329.8 8.3 331 -999
2011-09-09 06:40:49 51°14.327 2°55.259 330.3 8.5 331 10.4
2011-09-09 06:40:54 51°14.338 2°55.249 329.7 8.8 329 10.8
2011-09-09 06:40:59 51°14.349 2°55.239 328.9 9.1 329 11.2
2011-09-09 06:41:04 51°14.36 2°55.228 329.3 9.4 330 11.2
2011-09-09 06:41:09 51°14.372 2°55.218 330 9.6 330 11.2
2011-09-09 06:41:13 51°14.381 2°55.209 329.3 9.8 329 11.3
2011-09-09 06:41:19 51°14.395 2°55.195 329.1 9.9 329 11.3
2011-09-09 06:41:24 51°14.407 2°55.183 329.2 10.1 329 11.3
2011-09-09 06:41:29 51°14.419 2°55.171 329 10.2 328 11.3
2011-09-09 06:41:33 51°14.429 2°55.161 328 10.4 327 11.1
2011-09-09 06:41:39 51°14.443 2°55.146 326.8 10.5 326 10.5
2011-09-09 06:41:44 51°14.456 2°55.133 326.7 10.7 327 10.9
2011-09-09 06:41:49 51°14.468 2°55.12 326.5 10.8 325 10.7
2011-09-09 06:41:53 51°14.478 2°55.109 325.4 10.9 325 11.2
2011-09-09 06:41:59 51°14.493 2°55.092 324.8 11.1 325 11.3
2011-09-09 06:42:04 51°14.505 2°55.077 323.8 11.3 323 11.3
2011-09-09 06:42:09 51°14.518 2°55.062 323.5 11.4 324 11.7
2011-09-09 06:42:13 51°14.529 2°55.05 323.3 11.5 323 11.8
2011-09-09 06:42:19 51°14.543 2°55.03 322.2 11.6 321 11.8
2011-09-09 06:42:24 51°14.556 2°55.014 322.4 11.8 322 12.1
2011-09-09 06:42:29 51°14.57 2°54.999 324 11.9 324 12
2011-09-09 06:42:33 51°14.581 2°54.986 325.8 12.1 325 12.1
2011-09-09 06:42:39 51°14.597 2°54.966 326 12.2 322 11.9
2011-09-09 06:42:44 51°14.611 2°54.95 325.3 12.3 323 12
2011-09-09 06:42:49 51°14.624 2°54.933 325.5 12.4 322 12.1
2011-09-09 06:42:53 51°14.635 2°54.919 324.3 12.4 321 12.2
2011-09-09 06:42:59 51°14.652 2°54.9 324.7 12.4 323 11.9
2011-09-09 06:43:04 51°14.665 2°54.882 325.4 12.5 322 11.9
2011-09-09 06:43:09 51°14.678 2°54.865 324.7 12.5 322 11.8
2011-09-09 06:43:13 51°14.689 2°54.852 325.1 12.4 323 11.7
2011-09-09 06:43:19 51°14.706 2°54.832 325.7 12.5 322 11.9
2011-09-09 06:43:24 51°14.72 2°54.814 324.8 12.5 321 11.7
2011-09-09 06:43:29 51°14.733 2°54.796 323.8 12.5 320 11.8
2011-09-09 06:43:33 51°14.744 2°54.782 322.8 12.5 320 11.9
2011-09-09 06:43:39 51°14.76 2°54.761 322.4 12.5 320 11.9
2011-09-09 06:43:44 51°14.773 2°54.743 322.8 12.5 320 12
2011-09-09 06:43:49 51°14.786 2°54.726 322.9 12.5 321 12
2011-09-09 06:43:53 51°14.798 2°54.713 324.4 12.4 323 12
2011-09-09 06:43:59 51°14.814 2°54.692 324.9 12.4 322 12
2011-09-09 06:44:04 51°14.827 2°54.676 325.2 12.4 324 12.2
2011-09-09 06:44:09 51°14.842 2°54.661 326.6 12.4 325 12.3
2011-09-09 06:44:13 51°14.853 2°54.648 327.5 12.4 325 12.4
2011-09-09 06:44:18 51°14.867 2°54.632 327.8 12.4 324 12.2
2011-09-09 06:44:24 51°14.884 2°54.612 326.3 12.4 323 12.1
2011-09-09 06:44:29 51°14.898 2°54.595 325.1 12.4 322 12.3
2011-09-09 06:44:33 51°14.908 2°54.581 324.5 12.4 322 12.3
2011-09-09 06:44:39 51°14.925 2°54.562 325.2 12.4 323 12
2011-09-09 06:44:44 51°14.938 2°54.545 324.9 12.4 321 12.1
2011-09-09 06:44:49 51°14.952 2°54.527 323.7 12.4 321 11.8
2011-09-09 06:44:53 51°14.963 2°54.514 324 12.4 322 11.8
2011-09-09 06:44:59 51°14.978 2°54.493 323.3 12.4 319 12
2011-09-09 06:45:04 51°14.992 2°54.476 323 12.4 322 11.8
2011-09-09 06:45:09 51°15.005 2°54.458 322.6 12.4 319 11.7
2011-09-09 06:45:14 51°15.018 2°54.441 322.7 12.3 322 11.8
2011-09-09 06:45:19 51°15.031 2°54.423 323.6 12.3 320 11.8
2011-09-09 06:45:23 51°15.041 2°54.409 322.8 12.3 319 11.8
2011-09-09 06:45:29 51°15.057 2°54.388 321.7 12.4 319 11.9
2011-09-09 06:45:33 51°15.067 2°54.373 320.9 12.3 319 11.9
2011-09-09 06:45:39 51°15.083 2°54.353 322.3 12.2 323 11.9
2011-09-09 06:45:44 51°15.097 2°54.337 325.2 12.2 323 12
2011-09-09 06:45:49 51°15.11 2°54.321 325.5 12.3 322 12
2011-09-09 06:45:53 51°15.121 2°54.307 325.4 12.3 322 12.1
2011-09-09 06:45:59 51°15.137 2°54.286 324.1 12.3 320 12
2011-09-09 06:46:04 51°15.15 2°54.27 323.3 12.3 321 12
2011-09-09 06:46:09 51°15.163 2°54.252 323.2 12.3 321 12
2011-09-09 06:46:13 51°15.174 2°54.239 324.5 12.2 323 11.9
2011-09-09 06:46:19 51°15.19 2°54.219 324.5 12.3 321 12.2
2011-09-09 06:46:24 51°15.204 2°54.203 324.5 12.2 323 12.1
2011-09-09 06:46:29 51°15.217 2°54.186 325.5 12.3 322 11.8
2011-09-09 06:46:33 51°15.228 2°54.173 325.4 12.3 322 11.9
2011-09-09 06:46:39 51°15.244 2°54.153 325.2 12.3 322 12
2011-09-09 06:46:44 51°15.257 2°54.135 325.1 12.3 321 12
2011-09-09 06:46:49 51°15.271 2°54.119 325.2 12.3 323 12.2
2011-09-09 06:46:53 51°15.282 2°54.105 325 12.4 321 12
2011-09-09 06:46:58 51°15.295 2°54.088 324.1 12.3 321 12
2011-09-09 06:47:03 51°15.309 2°54.071 324.3 12.4 322 12.1
2011-09-09 06:47:09 51°15.325 2°54.051 324.9 12.3 322 12
2011-09-09 06:47:13 51°15.335 2°54.038 324.8 12.3 321 12.2
2011-09-09 06:47:19 51°15.351 2°54.017 324.5 12.3 322 12.3
2011-09-09 06:47:24 51°15.365 2°54 324.8 12.4 321 12.2
2011-09-09 06:47:29 51°15.378 2°53.983 323.9 12.4 320 12.3
2011-09-09 06:47:33 51°15.389 2°53.969 323.4 12.4 321 12.3
2011-09-09 06:47:39 51°15.405 2°53.949 324 12.3 323 12.2
2011-09-09 06:47:44 51°15.419 2°53.933 325.9 12.3 323 12.3
2011-09-09 06:47:49 51°15.432 2°53.916 325.8 12.4 322 12.6
2011-09-09 06:47:54 51°15.446 2°53.9 326 12.4 324 12.3
2011-09-09 06:47:59 51°15.46 2°53.884 327 12.4 324 12.3
2011-09-09 06:48:04 51°15.474 2°53.868 327.1 12.3 324 12.3
2011-09-09 06:48:09 51°15.488 2°53.852 326.9 12.4 324 12.4
2011-09-09 06:48:13 51°15.499 2°53.838 326 12.4 322 12.3
2011-09-09 06:48:19 51°15.516 2°53.819 326.2 12.4 324 12.3
2011-09-09 06:48:24 51°15.529 2°53.802 326.2 12.4 322 12.3
2011-09-09 06:48:29 51°15.542 2°53.785 324.6 12.4 322 12.2
2011-09-09 06:48:33 51°15.553 2°53.772 324.4 12.4 322 12.2
2011-09-09 06:48:39 51°15.57 2°53.752 324.3 12.4 322 12.4
2011-09-09 06:48:44 51°15.583 2°53.735 324.7 12.4 323 12.4
2011-09-09 06:48:49 51°15.597 2°53.719 325.9 12.3 323 12.2
2011-09-09 06:48:53 51°15.608 2°53.706 325.7 12.3 323 12.3
2011-09-09 06:48:59 51°15.624 2°53.687 326.4 12.4 324 12.4
2011-09-09 06:49:04 51°15.637 2°53.67 326 12.3 323 12.4
2011-09-09 06:49:09 51°15.652 2°53.655 326.7 12.4 326 12.5
2011-09-09 06:49:13 51°15.663 2°53.641 327.1 12.4 324 12.4
2011-09-09 06:49:19 51°15.68 2°53.624 327.7 12.3 327 12.4
2011-09-09 06:49:23 51°15.691 2°53.611 328.8 12.4 325 12.5
2011-09-09 06:49:29 51°15.708 2°53.593 329.1 12.4 327 12.5
2011-09-09 06:49:33 51°15.719 2°53.581 329.4 12.4 327 12.6
2011-09-09 06:49:39 51°15.737 2°53.564 330.2 12.3 329 12.5
2011-09-09 06:49:44 51°15.751 2°53.549 330.9 12.3 328 12.5
2011-09-09 06:49:49 51°15.765 2°53.535 330.6 12.3 328 12.6
2011-09-09 06:49:53 51°15.777 2°53.523 330.9 12.3 328 12.7
2011-09-09 06:49:59 51°15.794 2°53.505 330.3 12.3 327 12.6
2011-09-09 06:50:04 51°15.809 2°53.49 329.7 12.3 327 12.7
2011-09-09 06:50:09 51°15.823 2°53.476 329.7 12.3 328 12.7
2011-09-09 06:50:14 51°15.838 2°53.463 331.1 12.3 331 12.8
2011-09-09 06:50:19 51°15.852 2°53.45 332.8 12.3 330 12.5
2011-09-09 06:50:24 51°15.868 2°53.437 333.2 12.3 332 12.7
2011-09-09 06:50:29 51°15.883 2°53.425 334.9 12.3 334 12.8
2011-09-09 06:50:33 51°15.895 2°53.417 337.6 12.2 337 12.5
2011-09-09 06:50:39 51°15.914 2°53.404 339.3 12.2 336 12.8
2011-09-09 06:50:44 51°15.93 2°53.394 340.1 12.2 338 12.9
2011-09-09 06:50:49 51°15.945 2°53.383 340.5 12.2 337 12.4
2011-09-09 06:50:53 51°15.958 2°53.375 340.5 12.2 338 12.2
2011-09-09 06:50:59 51°15.976 2°53.362 341 12.2 337 12.2
2011-09-09 06:51:04 51°15.992 2°53.352 340.5 12.1 337 12.1
2011-09-09 06:51:09 51°16.007 2°53.34 339.9 12.2 335 12.2
2011-09-09 06:51:13 51°16.019 2°53.331 338.5 12.2 334 11.9
2011-09-09 06:51:19 51°16.037 2°53.316 336.9 12.1 332 12
2011-09-09 06:51:24 51°16.052 2°53.303 335.5 12.2 332 12.3
2011-09-09 06:51:29 51°16.067 2°53.29 334.9 12.1 331 12.1
2011-09-09 06:51:33 51°16.079 2°53.279 334.7 12.1 331 12.1
2011-09-09 06:51:39 51°16.096 2°53.264 335.2 12.1 333 12.2
2011-09-09 06:51:44 51°16.111 2°53.252 335.7 12.1 332 12.3
2011-09-09 06:51:49 51°16.126 2°53.239 335.4 12.2 332 12.4
2011-09-09 06:51:54 51°16.141 2°53.227 335.4 12.1 332 12.2
2011-09-09 06:51:59 51°16.156 2°53.214 335.4 12.1 332 12.4
2011-09-09 06:52:03 51°16.168 2°53.204 335 12.2 331 12.4
2011-09-09 06:52:09 51°16.185 2°53.188 334.7 12.1 332 12.2
2011-09-09 06:52:13 51°16.197 2°53.178 334.7 12.1 332 12.4
2011-09-09 06:52:19 51°16.215 2°53.163 334.9 12.1 332 12.5
2011-09-09 06:52:24 51°16.23 2°53.151 334.8 12.1 332 12.5
2011-09-09 06:52:29 51°16.245 2°53.138 335.3 12.2 332 12.5
2011-09-09 06:52:34 51°16.26 2°53.126 335.4 12.2 332 12.5
2011-09-09 06:52:39 51°16.275 2°53.114 335.5 12.2 333 12.4
2011-09-09 06:52:44 51°16.29 2°53.103 336.7 12.2 335 12.4
2011-09-09 06:52:49 51°16.305 2°53.092 338.2 12.2 337 12.5
2011-09-09 06:52:54 51°16.321 2°53.082 339.6 12.2 338 12.5
2011-09-09 06:52:59 51°16.337 2°53.072 340.7 12.1 338 12.3
2011-09-09 06:53:04 51°16.353 2°53.062 340.9 12.1 339 12.4
2011-09-09 06:53:09 51°16.368 2°53.052 341.2 12.1 338 12.4
2011-09-09 06:53:13 51°16.38 2°53.044 340.9 12.1 338 12.4
2011-09-09 06:53:19 51°16.399 2°53.033 341.2 12.1 339 12.3
2011-09-09 06:53:24 51°16.415 2°53.024 341.4 12.1 339 12.6
2011-09-09 06:53:29 51°16.431 2°53.014 341.8 12.1 339 12.4
2011-09-09 06:53:33 51°16.443 2°53.006 341.6 12.1 339 12.3
2011-09-09 06:53:38 51°16.459 2°52.997 341.6 12.1 340 12.3
2011-09-09 06:53:44 51°16.478 2°52.985 341.8 12.1 338 12.3
2011-09-09 06:53:49 51°16.493 2°52.975 341.2 12.1 338 12.4
2011-09-09 06:53:53 51°16.506 2°52.967 341 12.1 339 12.3
2011-09-09 06:53:59 51°16.525 2°52.956 341.2 12.1 339 12.4
2011-09-09 06:54:04 51°16.54 2°52.946 340.7 12.1 338 12.3
2011-09-09 06:54:09 51°16.556 2°52.936 340.5 12.1 338 12.2
2011-09-09 06:54:13 51°16.568 2°52.927 340.4 12.1 337 12.1
2011-09-09 06:54:19 51°16.586 2°52.914 339.5 12.1 336 11.9
2011-09-09 06:54:24 51°16.602 2°52.903 338.4 12.1 335 12
2011-09-09 06:54:29 51°16.617 2°52.891 336.4 12.1 333 11.8
2011-09-09 06:54:34 51°16.631 2°52.878 335.8 12.1 333 11.8
2011-09-09 06:54:39 51°16.646 2°52.866 335.4 12.1 332 11.8
2011-09-09 06:54:43 51°16.658 2°52.856 334.8 12 333 11.4
2011-09-09 06:54:49 51°16.676 2°52.841 334.7 12 332 11.6
2011-09-09 06:54:53 51°16.687 2°52.831 334.2 12 332 11.3
2011-09-09 06:54:59 51°16.705 2°52.817 334.7 12.1 334 11.3
2011-09-09 06:55:04 51°16.72 2°52.805 335.9 12 334 11
2011-09-09 06:55:09 51°16.736 2°52.794 336.9 12 336 11.1
2011-09-09 06:55:13 51°16.748 2°52.786 338 11.9 337 10.6
2011-09-09 06:55:19 51°16.766 2°52.774 339.6 12 338 10.3
2011-09-09 06:55:24 51°16.781 2°52.764 340 11.9 338 10.2
2011-09-09 06:55:29 51°16.797 2°52.755 340.8 11.8 340 10.1
2011-09-09 06:55:33 51°16.809 2°52.746 340.8 11.9 337 10
2011-09-09 06:55:38 51°16.824 2°52.736 340 11.9 337 10.2
2011-09-09 06:55:44 51°16.842 2°52.723 339.4 11.9 335 10.1
2011-09-09 06:55:49 51°16.857 2°52.713 338.7 11.8 336 9.8
2011-09-09 06:55:53 51°16.869 2°52.704 338.3 11.8 335 10
2011-09-09 06:55:59 51°16.887 2°52.692 338.4 11.8 337 9.9
2011-09-09 06:56:04 51°16.902 2°52.681 339.2 11.8 337 10.1
2011-09-09 06:56:09 51°16.917 2°52.671 339.8 11.8 338 10
2011-09-09 06:56:13 51°16.929 2°52.663 340.3 11.9 338 10.1
2011-09-09 06:56:18 51°16.945 2°52.653 340.9 11.8 339 10.3
2011-09-09 06:56:24 51°16.963 2°52.642 341.4 11.8 338 10.3
2011-09-09 06:56:29 51°16.978 2°52.632 341 11.9 337 10.5
2011-09-09 06:56:33 51°16.991 2°52.624 340.5 12 338 10.5
2011-09-09 06:56:39 51°17.009 2°52.611 340.2 12 337 10.3
2011-09-09 06:56:44 51°17.024 2°52.602 340.1 11.9 338 10.4
2011-09-09 06:56:49 51°17.039 2°52.592 340.2 11.8 337 10.1
2011-09-09 06:56:53 51°17.051 2°52.583 340.1 11.8 336 10.3
2011-09-09 06:56:59 51°17.069 2°52.57 339.3 11.8 335 10.3
2011-09-09 06:57:04 51°17.084 2°52.558 338.2 11.8 334 10.1
2011-09-09 06:57:09 51°17.098 2°52.547 337.1 11.8 334 10.1
2011-09-09 06:57:13 51°17.11 2°52.538 336.8 11.9 334 10.5
2011-09-09 06:57:19 51°17.128 2°52.524 336.8 11.9 334 10.1
2011-09-09 06:57:24 51°17.143 2°52.513 337.3 11.9 334 10.3
2011-09-09 06:57:29 51°17.158 2°52.502 337.5 11.8 335 10
2011-09-09 06:57:33 51°17.17 2°52.493 337.9 11.9 335 10.4
2011-09-09 06:57:39 51°17.188 2°52.48 338.6 11.9 336 10.5
2011-09-09 06:57:44 51°17.203 2°52.47 338.9 11.8 337 10.4
2011-09-09 06:57:49 51°17.218 2°52.459 339.4 11.9 336 10.6
2011-09-09 06:57:53 51°17.23 2°52.451 339.6 11.9 336 10.6
2011-09-09 06:57:59 51°17.248 2°52.438 339.3 11.9 336 10.6
2011-09-09 06:58:04 51°17.263 2°52.426 339.1 11.9 334 10.5
2011-09-09 06:58:09 51°17.278 2°52.414 337.1 11.9 332 10.6
2011-09-09 06:58:13 51°17.29 2°52.404 335.8 11.9 333 10.7
2011-09-09 06:58:19 51°17.307 2°52.389 335.3 12 332 10.8
2011-09-09 06:58:24 51°17.322 2°52.377 334.8 11.9 331 10.7
2011-09-09 06:58:29 51°17.336 2°52.364 334.7 11.9 331 10.8
2011-09-09 06:58:33 51°17.347 2°52.353 334.1 11.9 331 11
2011-09-09 06:58:39 51°17.365 2°52.338 334.2 11.9 331 10.9
2011-09-09 06:58:44 51°17.379 2°52.325 334 11.9 331 10.7
2011-09-09 06:58:49 51°17.394 2°52.311 333.9 12 330 11
2011-09-09 06:58:53 51°17.405 2°52.3 333.1 11.9 328 10.9
2011-09-09 06:58:59 51°17.421 2°52.283 331.8 12 327 11
2011-09-09 06:59:04 51°17.435 2°52.269 330.3 11.9 327 11
2011-09-09 06:59:09 51°17.449 2°52.254 329.8 12 326 11.3
2011-09-09 06:59:14 51°17.463 2°52.239 329.3 12 326 11.7
2011-09-09 06:59:19 51°17.477 2°52.224 328.9 12 326 11.9
2011-09-09 06:59:23 51°17.488 2°52.212 328.9 12.1 326 11.8
2011-09-09 06:59:29 51°17.504 2°52.194 328.9 12 326 11.8
2011-09-09 06:59:33 51°17.515 2°52.182 328.9 12 326 11.9
2011-09-09 06:59:39 51°17.532 2°52.165 329 12 327 12.1
2011-09-09 06:59:44 51°17.546 2°52.151 329.4 12 326 11.9
2011-09-09 06:59:49 51°17.56 2°52.136 329.8 12 326 11.9
2011-09-09 06:59:53 51°17.571 2°52.124 329.5 11.9 327 11.7
2011-09-09 06:59:59 51°17.588 2°52.107 329.5 12 327 12.1
2011-09-09 07:00:04 51°17.601 2°52.092 329.4 11.9 327 11.7
2011-09-09 07:00:09 51°17.615 2°52.077 329.5 12 326 11.7
2011-09-09 07:00:13 51°17.626 2°52.065 329.2 12 326 11.4
2011-09-09 07:00:19 51°17.642 2°52.048 329.6 11.9 326 11.4
2011-09-09 07:00:24 51°17.656 2°52.034 330.4 12 328 11.6
2011-09-09 07:00:29 51°17.67 2°52.02 331 12 328 11.4
2011-09-09 07:00:33 51°17.682 2°52.009 331.9 12 330 11.2
2011-09-09 07:00:39 51°17.699 2°51.993 332.3 11.9 330 11.1
2011-09-09 07:00:44 51°17.713 2°51.98 332.5 11.9 329 11
2011-09-09 07:00:49 51°17.727 2°51.966 332.7 11.9 330 11
2011-09-09 07:00:54 51°17.741 2°51.952 332.7 11.9 329 10.8
2011-09-09 07:00:59 51°17.755 2°51.939 332.7 11.9 329 10.7
2011-09-09 07:01:03 51°17.767 2°51.928 332.2 11.9 328 10.7
2011-09-09 07:01:09 51°17.783 2°51.91 331.2 11.9 327 10.7
2011-09-09 07:01:13 51°17.794 2°51.899 330 11.9 326 10.7
2011-09-09 07:01:19 51°17.81 2°51.88 328.5 11.9 324 10.5
2011-09-09 07:01:24 51°17.823 2°51.864 327.3 11.9 324 10.7
2011-09-09 07:01:29 51°17.837 2°51.848 326.9 11.9 323 10.5
2011-09-09 07:01:34 51°17.85 2°51.832 326.2 12 323 10.8
2011-09-09 07:01:39 51°17.863 2°51.817 326.3 12 323 10.7
2011-09-09 07:01:44 51°17.877 2°51.801 326.7 12 324 10.7
2011-09-09 07:01:49 51°17.89 2°51.785 326.6 12 323 10.7
2011-09-09 07:01:53 51°17.901 2°51.773 326.5 12 324 10.9
2011-09-09 07:01:59 51°17.917 2°51.754 326.8 11.9 324 10.8
2011-09-09 07:02:04 51°17.93 2°51.738 326.8 12 323 10.9
2011-09-09 07:02:09 51°17.943 2°51.722 326.7 12 323 11
2011-09-09 07:02:13 51°17.954 2°51.71 326.6 12 324 11.2
2011-09-09 07:02:19 51°17.97 2°51.691 326.6 12 323 10.8
2011-09-09 07:02:24 51°17.984 2°51.675 326.3 12 323 11.1
2011-09-09 07:02:29 51°17.997 2°51.659 326.4 12 324 10.9
2011-09-09 07:02:33 51°18.008 2°51.646 326.8 11.9 324 11.2
2011-09-09 07:02:38 51°18.021 2°51.631 327.2 12 325 11.2
2011-09-09 07:02:44 51°18.038 2°51.613 328.6 12 327 11.6
2011-09-09 07:02:49 51°18.052 2°51.599 330.2 12 328 11.4
2011-09-09 07:02:54 51°18.066 2°51.585 331.4 12 329 11.4
2011-09-09 07:02:59 51°18.081 2°51.572 332.3 12 330 11.6
2011-09-09 07:03:03 51°18.092 2°51.561 332.8 12 329 11.6
2011-09-09 07:03:09 51°18.109 2°51.545 332.7 12 329 11.8
2011-09-09 07:03:13 51°18.12 2°51.534 332.6 12 329 11.9
2011-09-09 07:03:19 51°18.138 2°51.517 332.5 12 329 12
2011-09-09 07:03:24 51°18.152 2°51.504 332.5 12 329 12.1
2011-09-09 07:03:29 51°18.166 2°51.49 332.5 12 329 12.1
2011-09-09 07:03:33 51°18.178 2°51.48 332.6 12 329 12.4
2011-09-09 07:03:39 51°18.195 2°51.463 332.6 12 328 12.2
2011-09-09 07:03:44 51°18.209 2°51.449 332.2 12 328 12.3
2011-09-09 07:03:49 51°18.223 2°51.435 332 12 327 12.6
2011-09-09 07:03:54 51°18.237 2°51.42 331.5 12 328 12.7
2011-09-09 07:03:59 51°18.251 2°51.406 331.8 12 327 12.7
2011-09-09 07:04:04 51°18.265 2°51.391 331.5 12 326 12.9
2011-09-09 07:04:09 51°18.279 2°51.376 330.3 12.1 325 13.2
2011-09-09 07:04:13 51°18.29 2°51.364 328.8 12 324 13
2011-09-09 07:04:19 51°18.306 2°51.344 327.6 12.1 322 13.2
2011-09-09 07:04:24 51°18.319 2°51.328 327 12.1 323 13.1
2011-09-09 07:04:29 51°18.332 2°51.311 326.6 12.1 322 13.1
2011-09-09 07:04:33 51°18.343 2°51.298 326.1 12.1 323 13.2
2011-09-09 07:04:38 51°18.356 2°51.282 326.9 12.1 324 13.5
2011-09-09 07:04:44 51°18.373 2°51.264 328 12.1 324 13.6
2011-09-09 07:04:49 51°18.386 2°51.249 328.6 12.1 325 13.7
2011-09-09 07:04:53 51°18.397 2°51.237 329 12.1 326 13.6
2011-09-09 07:04:59 51°18.414 2°51.219 329.9 12 326 13.8
2011-09-09 07:05:04 51°18.428 2°51.203 330 12 325 14
2011-09-09 07:05:09 51°18.442 2°51.188 329.9 12.1 326 14.1
2011-09-09 07:05:13 51°18.453 2°51.176 330 12 324 13.9
2011-09-09 07:05:19 51°18.469 2°51.157 329.1 12.1 324 14
2011-09-09 07:05:23 51°18.48 2°51.144 328.2 12.1 323 14.3
2011-09-09 07:05:29 51°18.496 2°51.125 327.3 12.1 323 14.1
2011-09-09 07:05:33 51°18.506 2°51.112 326.8 12.1 322 14.3
2011-09-09 07:05:39 51°18.522 2°51.093 326.6 12 322 14.3
2011-09-09 07:05:44 51°18.535 2°51.076 326.3 12.1 322 14.5
2011-09-09 07:05:49 51°18.549 2°51.06 326.5 12 323 14.5
2011-09-09 07:05:53 51°18.559 2°51.047 326.8 12.1 323 14.8
2011-09-09 07:05:59 51°18.576 2°51.028 327.3 12.1 324 14.5
2011-09-09 07:06:04 51°18.589 2°51.012 327.8 12.1 324 14.7
2011-09-09 07:06:09 51°18.603 2°50.997 328.4 12.1 326 14.9
2011-09-09 07:06:13 51°18.614 2°50.985 329.6 12.1 326 14.8
2011-09-09 07:06:19 51°18.631 2°50.968 331.1 12.1 328 14.7
2011-09-09 07:06:24 51°18.645 2°50.953 331.5 12.1 327 14.9
2011-09-09 07:06:29 51°18.66 2°50.94 332 12 329 14.7
2011-09-09 07:06:33 51°18.671 2°50.929 332.8 12 328 14.8
2011-09-09 07:06:39 51°18.688 2°50.912 332.5 12 329 15
2011-09-09 07:06:44 51°18.702 2°50.897 332.2 12 327 15.2
2011-09-09 07:06:49 51°18.716 2°50.883 331.7 12.1 328 15.2
2011-09-09 07:06:53 51°18.727 2°50.871 331.4 12.1 326 15.2
2011-09-09 07:06:59 51°18.744 2°50.853 330.8 12.1 327 15.1
2011-09-09 07:07:04 51°18.757 2°50.838 330.8 12.1 326 15.2
2011-09-09 07:07:09 51°18.771 2°50.823 330.3 12.1 326 15.1
2011-09-09 07:07:13 51°18.782 2°50.811 330 12.1 325 15.2
2011-09-09 07:07:19 51°18.799 2°50.792 329 12.1 324 15.1
2011-09-09 07:07:24 51°18.812 2°50.776 328.2 12.2 324 15.1
2011-09-09 07:07:29 51°18.825 2°50.759 327.1 12.2 322 15.2
2011-09-09 07:07:33 51°18.836 2°50.747 326.8 12.2 323 15.3
2011-09-09 07:07:39 51°18.852 2°50.727 326.6 12.2 322 15.2
2011-09-09 07:07:44 51°18.866 2°50.711 326.4 12.2 323 15.2
2011-09-09 07:07:49 51°18.879 2°50.694 326.2 12.2 323 15.5
2011-09-09 07:07:53 51°18.89 2°50.681 326.7 12.2 323 15
2011-09-09 07:07:59 51°18.906 2°50.662 327.3 12.1 324 15
2011-09-09 07:08:04 51°18.92 2°50.647 328.2 12.2 326 15.1
2011-09-09 07:08:09 51°18.934 2°50.632 329.4 12.2 326 15.2
2011-09-09 07:08:14 51°18.948 2°50.618 330.5 12.1 328 15
2011-09-09 07:08:19 51°18.962 2°50.604 332.1 12 329 15
2011-09-09 07:08:24 51°18.977 2°50.59 332.9 12.1 329 15.2
2011-09-09 07:08:29 51°18.991 2°50.577 333 12.1 329 15.1
2011-09-09 07:08:33 51°19.003 2°50.566 332.8 12.1 328 14.8
2011-09-09 07:08:39 51°19.02 2°50.549 331.9 12 328 14.6
2011-09-09 07:08:44 51°19.034 2°50.534 331.7 12 327 14.6
2011-09-09 07:08:49 51°19.048 2°50.519 331 12.1 327 15
2011-09-09 07:08:53 51°19.059 2°50.507 330.3 12.1 326 14.7
2011-09-09 07:08:58 51°19.073 2°50.493 330.1 12.1 326 14.6
2011-09-09 07:09:04 51°19.09 2°50.474 330.1 12.1 325 14.2
2011-09-09 07:09:09 51°19.103 2°50.459 329.8 12.1 325 14.2
2011-09-09 07:09:13 51°19.114 2°50.447 328.8 12.1 324 14.1
2011-09-09 07:09:19 51°19.131 2°50.427 328.1 12.1 324 14
2011-09-09 07:09:24 51°19.144 2°50.411 327.5 12.1 323 13.8
2011-09-09 07:09:29 51°19.157 2°50.395 326.6 12.1 323 13.7
2011-09-09 07:09:33 51°19.168 2°50.382 326.2 12.1 322 13.7
2011-09-09 07:09:39 51°19.184 2°50.362 326.2 12.1 324 13.7
2011-09-09 07:09:44 51°19.197 2°50.346 326.7 12.2 323 13.4
2011-09-09 07:09:49 51°19.211 2°50.33 326.8 12.1 323 13.2
2011-09-09 07:09:54 51°19.224 2°50.314 326.2 12.2 322 13
2011-09-09 07:09:59 51°19.238 2°50.298 326.2 12.2 324 12.9
2011-09-09 07:10:03 51°19.249 2°50.285 327 12.2 324 12.9
2011-09-09 07:10:09 51°19.265 2°50.267 327.6 12.1 325 12.6
2011-09-09 07:10:13 51°19.276 2°50.254 327.6 12.1 324 12.8
2011-09-09 07:10:19 51°19.293 2°50.235 327.3 12.1 324 12.8
2011-09-09 07:10:24 51°19.306 2°50.22 327.6 12.1 325 12.8
2011-09-09 07:10:29 51°19.32 2°50.204 327.7 12.1 324 12.4
2011-09-09 07:10:34 51°19.333 2°50.188 327.3 12.1 324 12.5
2011-09-09 07:10:39 51°19.347 2°50.172 326.9 12.1 324 12.2
2011-09-09 07:10:44 51°19.36 2°50.156 326.5 12.1 323 12.1
2011-09-09 07:10:49 51°19.374 2°50.141 326.9 12.2 324 12.1
2011-09-09 07:10:53 51°19.385 2°50.128 327.4 12.1 325 12.1
2011-09-09 07:10:59 51°19.402 2°50.111 329.2 12.1 328 12.2
2011-09-09 07:11:04 51°19.416 2°50.096 330.2 12.2 326 11.8
2011-09-09 07:11:09 51°19.43 2°50.082 330.4 12.2 329 12
2011-09-09 07:11:13 51°19.442 2°50.071 331.8 12.2 329 12.2
2011-09-09 07:11:18 51°19.456 2°50.057 332.5 12.1 330 12.1
2011-09-09 07:11:24 51°19.474 2°50.042 333.2 12.2 330 12.6
2011-09-09 07:11:29 51°19.489 2°50.028 333 12.2 329 13.1
2011-09-09 07:11:33 51°19.5 2°50.017 332.7 12.2 329 13.4
2011-09-09 07:11:39 51°19.518 2°50 332.4 12.3 328 13.6
2011-09-09 07:11:44 51°19.532 2°49.985 331.8 12.3 328 14
2011-09-09 07:11:49 51°19.546 2°49.971 331.8 12.2 329 14
2011-09-09 07:11:53 51°19.558 2°49.96 331.9 12.3 328 14.3
2011-09-09 07:11:59 51°19.575 2°49.943 332.5 12.2 330 14.3
2011-09-09 07:12:04 51°19.59 2°49.929 332.5 12.2 328 14.4
2011-09-09 07:12:09 51°19.604 2°49.915 332.5 12.2 329 14.6
2011-09-09 07:12:13 51°19.616 2°49.904 332.4 12.2 328 14.7
2011-09-09 07:12:19 51°19.633 2°49.887 331.8 12.2 328 15.1
2011-09-09 07:12:24 51°19.647 2°49.871 331.5 12.2 326 14.8
2011-09-09 07:12:29 51°19.661 2°49.857 330.8 12.2 327 14.6
2011-09-09 07:12:34 51°19.675 2°49.842 330.5 12.2 326 15
2011-09-09 07:12:39 51°19.689 2°49.826 330.4 12.2 325 15.2
2011-09-09 07:12:44 51°19.703 2°49.811 329.6 12.2 325 14.7
2011-09-09 07:12:49 51°19.717 2°49.795 329.3 12.2 325 14.9
2011-09-09 07:12:53 51°19.728 2°49.782 328.9 12.3 324 15.4
2011-09-09 07:12:59 51°19.744 2°49.764 328.5 12.2 325 15.4
2011-09-09 07:13:04 51°19.758 2°49.748 328.8 12.3 324 15.9
2011-09-09 07:13:09 51°19.772 2°49.732 329 12.2 324 15.9
2011-09-09 07:13:13 51°19.783 2°49.719 328.7 12.2 324 16.2
2011-09-09 07:13:19 51°19.799 2°49.7 328.6 12.2 324 16.5
2011-09-09 07:13:24 51°19.813 2°49.684 328.4 12.3 323 16.9
2011-09-09 07:13:29 51°19.826 2°49.667 327.8 12.2 323 16.9
2011-09-09 07:13:33 51°19.837 2°49.654 326.9 12.3 322 17.2
2011-09-09 07:13:39 51°19.854 2°49.634 326.5 12.3 322 17.2
2011-09-09 07:13:44 51°19.867 2°49.617 326.2 12.3 321 17.2
2011-09-09 07:13:49 51°19.88 2°49.601 325.9 12.3 322 17.8
2011-09-09 07:13:53 51°19.891 2°49.587 326.1 12.3 322 18
2011-09-09 07:13:58 51°19.904 2°49.57 326.5 12.3 322 18.1
2011-09-09 07:14:04 51°19.92 2°49.55 326.8 12.3 323 18
2011-09-09 07:14:09 51°19.934 2°49.534 326.8 12.3 323 18.3
2011-09-09 07:14:14 51°19.947 2°49.517 326.9 12.3 322 18.7
2011-09-09 07:14:19 51°19.961 2°49.501 327.2 12.3 323 19
2011-09-09 07:14:23 51°19.972 2°49.488 327.1 12.3 323 19.2
2011-09-09 07:14:29 51°19.989 2°49.469 327.8 12.3 324 19.3
2011-09-09 07:14:33 51°20 2°49.456 328.6 12.2 324 19.4
2011-09-09 07:14:39 51°20.016 2°49.437 328.9 12.2 324 19.4
2011-09-09 07:14:44 51°20.03 2°49.421 329.1 12.3 325 20
2011-09-09 07:14:49 51°20.044 2°49.405 328.9 12.3 324 20.1
2011-09-09 07:14:54 51°20.058 2°49.389 329.1 12.3 325 20.5
2011-09-09 07:14:59 51°20.072 2°49.374 329.2 12.2 325 20.5
2011-09-09 07:15:04 51°20.085 2°49.358 329.6 12.2 325 20.9
2011-09-09 07:15:09 51°20.099 2°49.342 329.8 12.2 324 21.1
2011-09-09 07:15:13 51°20.11 2°49.33 329.8 12.2 325 21.1
2011-09-09 07:15:19 51°20.127 2°49.311 330 12.3 325 21.5
2011-09-09 07:15:24 51°20.141 2°49.296 329.8 12.3 324 21.5
2011-09-09 07:15:29 51°20.155 2°49.28 329.7 12.3 325 21.8
2011-09-09 07:15:33 51°20.166 2°49.267 329.7 12.2 324 22
2011-09-09 07:15:39 51°20.183 2°49.249 329.7 12.3 326 22.5
2011-09-09 07:15:44 51°20.197 2°49.234 329.9 12.2 326 22.1
2011-09-09 07:15:49 51°20.211 2°49.218 330.2 12.2 325 22.4
2011-09-09 07:15:53 51°20.221 2°49.206 330.3 12.2 325 22.6
2011-09-09 07:15:58 51°20.235 2°49.19 330.3 12.2 325 22.8
2011-09-09 07:16:04 51°20.252 2°49.172 330.5 12.2 326 23.2
2011-09-09 07:16:09 51°20.266 2°49.157 330.8 12.2 326 22.8
2011-09-09 07:16:13 51°20.277 2°49.145 330.6 12.3 326 23.2
2011-09-09 07:16:19 51°20.294 2°49.126 330.9 12.3 326 23.1
2011-09-09 07:16:24 51°20.309 2°49.112 331.1 12.3 327 23.2
2011-09-09 07:16:29 51°20.323 2°49.097 331.6 12.2 326 22.8
2011-09-09 07:16:33 51°20.334 2°49.085 331.5 12.2 327 23.1
2011-09-09 07:16:38 51°20.348 2°49.07 331.5 12.2 326 23.2
2011-09-09 07:16:44 51°20.365 2°49.052 331.4 12.3 326 23.4
2011-09-09 07:16:49 51°20.379 2°49.036 331.1 12.2 326 23.1
2011-09-09 07:16:53 51°20.39 2°49.024 330.9 12.3 325 23.2
2011-09-09 07:16:59 51°20.407 2°49.005 330.2 12.2 325 23
2011-09-09 07:17:04 51°20.421 2°48.989 329.5 12.3 324 23.2
2011-09-09 07:17:09 51°20.434 2°48.973 328.8 12.3 324 23.1
2011-09-09 07:17:13 51°20.445 2°48.96 328.3 12.3 322 23.3
2011-09-09 07:17:19 51°20.462 2°48.94 327.9 12.3 323 23.4
2011-09-09 07:17:24 51°20.475 2°48.923 327.8 12.3 322 23.2
2011-09-09 07:17:29 51°20.488 2°48.906 327.4 12.3 322 23.1
2011-09-09 07:17:33 51°20.499 2°48.893 326.5 12.3 322 23.2
2011-09-09 07:17:39 51°20.515 2°48.873 326.9 12.3 322 23.2
2011-09-09 07:17:44 51°20.528 2°48.856 326.7 12.3 322 23.2
2011-09-09 07:17:49 51°20.542 2°48.839 326.6 12.3 322 23.4
2011-09-09 07:17:53 51°20.553 2°48.826 326.5 12.3 322 23.3
2011-09-09 07:17:59 51°20.569 2°48.806 326.5 12.2 323 23.4
2011-09-09 07:18:04 51°20.582 2°48.789 327.2 12.2 323 23.3
2011-09-09 07:18:09 51°20.596 2°48.774 328.1 12.2 325 23
2011-09-09 07:18:13 51°20.607 2°48.762 329.7 12.2 326 23
2011-09-09 07:18:19 51°20.624 2°48.744 329.8 12.2 326 23.2
2011-09-09 07:18:23 51°20.635 2°48.731 330 12.2 326 23
2011-09-09 07:18:29 51°20.652 2°48.713 330.4 12.2 327 23
2011-09-09 07:18:33 51°20.663 2°48.701 331.2 12.2 327 22.6
2011-09-09 07:18:39 51°20.681 2°48.685 332.5 12.2 328 22.8
2011-09-09 07:18:44 51°20.695 2°48.67 332.2 12.2 327 22.6
2011-09-09 07:18:49 51°20.709 2°48.655 331.9 12.1 327 22.6
2011-09-09 07:18:53 51°20.721 2°48.644 331.7 12.2 327 23
2011-09-09 07:18:59 51°20.737 2°48.625 330.8 12.2 326 22.4
2011-09-09 07:19:04 51°20.751 2°48.61 330.5 12.2 326 22.4
2011-09-09 07:19:09 51°20.765 2°48.595 330 12.2 326 22
2011-09-09 07:19:14 51°20.779 2°48.579 329.7 12.2 324 22.3
2011-09-09 07:19:19 51°20.793 2°48.563 328.9 12.2 323 22
2011-09-09 07:19:24 51°20.807 2°48.547 328.1 12.2 324 21.8
2011-09-09 07:19:29 51°20.82 2°48.53 328.2 12.3 323 22
2011-09-09 07:19:33 51°20.831 2°48.518 327.9 12.3 324 21.5
2011-09-09 07:19:39 51°20.847 2°48.498 327.9 12.3 323 21.4
2011-09-09 07:19:44 51°20.861 2°48.482 327.7 12.3 323 21.5
2011-09-09 07:19:49 51°20.875 2°48.465 327.1 12.3 323 21.4
2011-09-09 07:19:53 51°20.886 2°48.452 327.4 12.3 323 21.5
2011-09-09 07:19:59 51°20.902 2°48.433 327.5 12.3 323 21
2011-09-09 07:20:04 51°20.915 2°48.416 327.2 12.3 323 21
2011-09-09 07:20:09 51°20.929 2°48.4 327.5 12.2 323 21.1
2011-09-09 07:20:13 51°20.94 2°48.387 327.5 12.2 324 21.1
2011-09-09 07:20:19 51°20.956 2°48.368 327.6 12.3 324 21
2011-09-09 07:20:24 51°20.97 2°48.352 327.9 12.3 324 20.6
2011-09-09 07:20:29 51°20.984 2°48.336 328.1 12.2 324 20.5
2011-09-09 07:20:33 51°20.995 2°48.323 327.8 12.2 323 20.6
2011-09-09 07:20:38 51°21.008 2°48.307 327.5 12.2 323 20.7
2011-09-09 07:20:44 51°21.024 2°48.287 327.2 12.2 324 20.4
2011-09-09 07:20:49 51°21.038 2°48.271 327.9 12.2 324 20.4
2011-09-09 07:20:53 51°21.049 2°48.259 328.2 12.3 324 20.6
2011-09-09 07:20:59 51°21.066 2°48.24 329 12.3 325 20.5
2011-09-09 07:21:04 51°21.08 2°48.224 328.7 12.3 324 20.8
2011-09-09 07:21:09 51°21.094 2°48.208 329 12.3 325 20.5
2011-09-09 07:21:13 51°21.105 2°48.196 329.2 12.2 326 20.8
2011-09-09 07:21:19 51°21.122 2°48.179 330.9 12.3 327 21.2
2011-09-09 07:21:24 51°21.136 2°48.164 331.1 12.3 327 21.5
2011-09-09 07:21:29 51°21.15 2°48.149 331.4 12.2 328 21.5
2011-09-09 07:21:33 51°21.162 2°48.138 332.5 12.3 328 22
2011-09-09 07:21:39 51°21.179 2°48.121 332.2 12.3 328 22.1
2011-09-09 07:21:44 51°21.194 2°48.106 332.4 12.2 328 21.9
2011-09-09 07:21:49 51°21.208 2°48.092 332.5 12.2 328 21.9
2011-09-09 07:21:53 51°21.22 2°48.08 332 12.3 327 22.5
2011-09-09 07:21:59 51°21.237 2°48.062 331 12.3 326 22.3
2011-09-09 07:22:04 51°21.251 2°48.048 330.7 12.2 327 22.6
2011-09-09 07:22:09 51°21.265 2°48.033 330.9 12.3 327 22.7
2011-09-09 07:22:13 51°21.277 2°48.022 331.5 12.3 328 22.8
2011-09-09 07:22:19 51°21.294 2°48.004 331.7 12.3 327 22.3
2011-09-09 07:22:24 51°21.309 2°47.99 332 12.3 329 22.1
2011-09-09 07:22:29 51°21.323 2°47.976 332.5 12.3 328 21.5
2011-09-09 07:22:33 51°21.335 2°47.964 332.2 12.3 328 21.6
2011-09-09 07:22:39 51°21.352 2°47.946 332 12.3 327 21.3
2011-09-09 07:22:44 51°21.366 2°47.931 330.9 12.4 326 22.2
2011-09-09 07:22:49 51°21.381 2°47.916 329.8 12.3 326 22.4
2011-09-09 07:22:53 51°21.392 2°47.903 329.6 12.3 325 22.8
2011-09-09 07:22:59 51°21.408 2°47.885 328.8 12.3 325 23.5
2011-09-09 07:23:04 51°21.422 2°47.869 328.6 12.3 325 23.6
2011-09-09 07:23:09 51°21.436 2°47.853 328.6 12.3 325 23.8
2011-09-09 07:23:13 51°21.447 2°47.84 328.1 12.3 324 23.5
2011-09-09 07:23:19 51°21.464 2°47.821 328 12.3 324 23.5
2011-09-09 07:23:24 51°21.478 2°47.805 327.9 12.3 324 23.1
2011-09-09 07:23:29 51°21.492 2°47.789 327.2 12.3 323 22.9
2011-09-09 07:23:33 51°21.503 2°47.776 326.7 12.3 323 23.4
2011-09-09 07:23:39 51°21.519 2°47.756 326.4 12.4 323 23.4
2011-09-09 07:23:44 51°21.533 2°47.739 326.6 12.3 324 23.5
2011-09-09 07:23:49 51°21.547 2°47.724 327.1 12.3 326 24
2011-09-09 07:23:53 51°21.558 2°47.712 328.8 12.3 326 23.9
2011-09-09 07:23:59 51°21.576 2°47.694 329.8 12.3 327 24.2
2011-09-09 07:24:04 51°21.59 2°47.68 330.3 12.3 328 24
2011-09-09 07:24:09 51°21.604 2°47.665 330.7 12.3 328 24.9
2011-09-09 07:24:13 51°21.616 2°47.654 331.2 12.3 328 24.6
2011-09-09 07:24:19 51°21.633 2°47.636 331 12.3 328 25
2011-09-09 07:24:24 51°21.648 2°47.622 331.6 12.3 328 25.3
2011-09-09 07:24:29 51°21.662 2°47.607 331.5 12.2 328 25.1
2011-09-09 07:24:33 51°21.673 2°47.595 331.1 12.2 327 24.8
2011-09-09 07:24:39 51°21.69 2°47.578 330.3 12.2 326 25
2011-09-09 07:24:44 51°21.704 2°47.563 329.7 12.2 327 24.2
2011-09-09 07:24:49 51°21.718 2°47.547 329.6 12.2 326 24
2011-09-09 07:24:53 51°21.73 2°47.535 329.4 12.3 325 23
2011-09-09 07:24:59 51°21.746 2°47.516 329.2 12.3 325 22.9
2011-09-09 07:25:04 51°21.76 2°47.501 328.9 12.2 325 23.5
2011-09-09 07:25:09 51°21.774 2°47.485 328.3 12.3 324 23.8
2011-09-09 07:25:13 51°21.785 2°47.472 327.6 12.2 324 24
2011-09-09 07:25:19 51°21.801 2°47.453 327.6 12.3 324 24.4
2011-09-09 07:25:23 51°21.813 2°47.44 327.4 12.3 323 24.6
2011-09-09 07:25:29 51°21.829 2°47.421 326.9 12.4 323 24.7
2011-09-09 07:25:33 51°21.84 2°47.408 326.9 12.3 324 24.7
2011-09-09 07:25:39 51°21.857 2°47.389 327.9 12.3 325 25
2011-09-09 07:25:44 51°21.87 2°47.373 328.2 12.3 325 25
2011-09-09 07:25:49 51°21.884 2°47.357 328.3 12.3 325 25.1
2011-09-09 07:25:53 51°21.896 2°47.345 329.3 12.3 326 25.1
2011-09-09 07:25:59 51°21.913 2°47.327 329.8 12.3 327 24.8
2011-09-09 07:26:04 51°21.927 2°47.312 330.4 12.2 327 25
2011-09-09 07:26:09 51°21.941 2°47.297 330 12.2 327 25.3
2011-09-09 07:26:13 51°21.952 2°47.285 330.4 12.2 327 25
2011-09-09 07:26:19 51°21.969 2°47.267 331.1 12.3 327 24.7
2011-09-09 07:26:24 51°21.984 2°47.253 331 12.3 328 24.8
2011-09-09 07:26:29 51°21.998 2°47.238 331.8 12.2 328 24.7
2011-09-09 07:26:33 51°22.01 2°47.227 331.9 12.2 328 24.3
2011-09-09 07:26:39 51°22.027 2°47.21 331.9 12.2 328 24.3
2011-09-09 07:26:44 51°22.042 2°47.196 332.1 12.3 329 24.5
2011-09-09 07:26:49 51°22.056 2°47.181 331.8 12.3 328 24.3
2011-09-09 07:26:53 51°22.067 2°47.169 331.4 12.3 327 24
2011-09-09 07:26:59 51°22.084 2°47.151 330.5 12.3 326 23.6
2011-09-09 07:27:04 51°22.098 2°47.136 330.1 12.3 326 23.4
2011-09-09 07:27:09 51°22.113 2°47.121 330.2 12.3 327 23.7
2011-09-09 07:27:13 51°22.124 2°47.109 330.2 12.3 326 23.1
2011-09-09 07:27:19 51°22.141 2°47.091 330.1 12.2 325 22.9
2011-09-09 07:27:23 51°22.152 2°47.078 328.7 12.2 324 22.7
2011-09-09 07:27:29 51°22.168 2°47.059 328.2 12.2 325 22.3
2011-09-09 07:27:33 51°22.179 2°47.046 327.6 12.2 323 22.1
2011-09-09 07:27:39 51°22.195 2°47.027 327.4 12.2 323 22.3
2011-09-09 07:27:44 51°22.209 2°47.01 326.7 12.2 322 21.7
2011-09-09 07:27:49 51°22.222 2°46.993 326.1 12.2 321 21.2
2011-09-09 07:27:53 51°22.233 2°46.98 326 12.2 323 20.1
2011-09-09 07:27:59 51°22.249 2°46.96 326 12.3 321 19.1
2011-09-09 07:28:04 51°22.262 2°46.943 326 12.2 322 17.7
2011-09-09 07:28:09 51°22.275 2°46.926 325.7 12.2 321 16
2011-09-09 07:28:14 51°22.288 2°46.909 326.1 12.1 321 16
2011-09-09 07:28:19 51°22.301 2°46.892 325.6 12.1 322 18.1
2011-09-09 07:28:23 51°22.312 2°46.879 326.5 12.1 322 18.7
2011-09-09 07:28:29 51°22.328 2°46.859 326.8 12.1 323 18.7
2011-09-09 07:28:33 51°22.339 2°46.847 327.4 12.2 323 18.5
2011-09-09 07:28:39 51°22.355 2°46.828 327.7 12.1 325 18.2
2011-09-09 07:28:44 51°22.369 2°46.812 328.6 12.1 325 17.9
2011-09-09 07:28:49 51°22.383 2°46.797 328.8 12.1 325 17.5
2011-09-09 07:28:53 51°22.394 2°46.785 329.3 12.2 324 15.2
2011-09-09 07:28:59 51°22.41 2°46.765 328.2 12.1 324 14.7
2011-09-09 07:29:04 51°22.424 2°46.75 328.4 12.2 324 16.4
2011-09-09 07:29:09 51°22.437 2°46.734 329.3 12.2 326 17.2
2011-09-09 07:29:13 51°22.449 2°46.723 330.5 12.1 327 18.3
2011-09-09 07:29:19 51°22.466 2°46.704 331.5 12.2 326 18.7
2011-09-09 07:29:24 51°22.48 2°46.69 330.8 12.2 327 18.7
2011-09-09 07:29:29 51°22.494 2°46.675 330.8 12.2 328 19.4
2011-09-09 07:29:33 51°22.505 2°46.663 331.4 12.2 327 19.8
2011-09-09 07:29:39 51°22.522 2°46.646 331.8 12.1 328 19.9
2011-09-09 07:29:44 51°22.536 2°46.632 331.9 12.2 327 20
2011-09-09 07:29:49 51°22.551 2°46.618 332.1 12.1 329 19.3
2011-09-09 07:29:53 51°22.562 2°46.607 332.3 12.1 328 20.3
2011-09-09 07:29:59 51°22.58 2°46.59 332.4 12.1 329 20.7
2011-09-09 07:30:04 51°22.593 2°46.575 332.2 12.2 326 21
2011-09-09 07:30:09 51°22.608 2°46.56 330.8 12.1 327 21.7
2011-09-09 07:30:13 51°22.619 2°46.548 330.8 12.2 326 21.8
2011-09-09 07:30:19 51°22.636 2°46.53 330.5 12.2 326 22.1
2011-09-09 07:30:24 51°22.65 2°46.515 329.9 12.2 326 22.4
2011-09-09 07:30:29 51°22.664 2°46.5 329.8 12.2 326 22.3
2011-09-09 07:30:33 51°22.675 2°46.488 330.2 12.2 326 22.6
2011-09-09 07:30:39 51°22.692 2°46.47 330.2 12.2 326 22.5
2011-09-09 07:30:44 51°22.706 2°46.455 329.7 12.2 325 22.6
2011-09-09 07:30:49 51°22.719 2°46.439 329 12.3 324 22.2
2011-09-09 07:30:53 51°22.73 2°46.426 328.1 12.2 323 21.7
2011-09-09 07:30:59 51°22.746 2°46.407 327.5 12.2 324 22.5
2011-09-09 07:31:04 51°22.76 2°46.391 327.3 12.2 324 23.1
2011-09-09 07:31:09 51°22.774 2°46.375 327.7 12.2 324 23.4
2011-09-09 07:31:13 51°22.785 2°46.362 327.6 12.2 324 23.8
2011-09-09 07:31:19 51°22.802 2°46.343 328.3 12.3 324 23.8
2011-09-09 07:31:24 51°22.815 2°46.327 327.8 12.3 323 23.9
2011-09-09 07:31:29 51°22.829 2°46.311 327.1 12.3 324 24.1
2011-09-09 07:31:33 51°22.84 2°46.298 327 12.2 323 24.1
2011-09-09 07:31:39 51°22.856 2°46.279 327.5 12.2 325 24.3
2011-09-09 07:31:44 51°22.869 2°46.263 327.6 12.2 323 24.6
2011-09-09 07:31:49 51°22.883 2°46.246 327.3 12.2 322 24.4
2011-09-09 07:31:53 51°22.894 2°46.233 326.6 12.1 323 24.6
2011-09-09 07:31:59 51°22.91 2°46.214 327.1 12.2 323 24.5
2011-09-09 07:32:04 51°22.924 2°46.198 327.4 12.2 324 24.8
2011-09-09 07:32:09 51°22.937 2°46.182 328.1 12.3 324 24.9
2011-09-09 07:32:13 51°22.949 2°46.17 328.3 12.2 325 23.9
2011-09-09 07:32:19 51°22.965 2°46.151 328.9 12.3 324 23.1
2011-09-09 07:32:24 51°22.979 2°46.136 328.9 12.2 326 22.2
2011-09-09 07:32:29 51°22.993 2°46.121 329.4 12.2 326 22.4
2011-09-09 07:32:33 51°23.004 2°46.108 329.8 12.2 326 22.3
2011-09-09 07:32:39 51°23.021 2°46.091 330.6 12.2 327 22.1
2011-09-09 07:32:44 51°23.035 2°46.076 330.6 12.2 327 22.5
2011-09-09 07:32:49 51°23.05 2°46.061 331.4 12.2 327 23.7
2011-09-09 07:32:53 51°23.061 2°46.049 331.4 12.2 328 24.4
2011-09-09 07:32:59 51°23.078 2°46.032 331.8 12.2 327 24.1
2011-09-09 07:33:04 51°23.093 2°46.018 332 12.2 329 24.5
2011-09-09 07:33:09 51°23.107 2°46.003 331.7 12.3 326 25.4
2011-09-09 07:33:13 51°23.118 2°45.991 330.6 12.3 326 25.9
2011-09-09 07:33:19 51°23.135 2°45.971 329.4 12.2 324 25.8
2011-09-09 07:33:24 51°23.148 2°45.956 329 12.2 323 26
2011-09-09 07:33:29 51°23.162 2°45.939 327.2 12.2 323 26.5
2011-09-09 07:33:33 51°23.172 2°45.926 326.9 12.2 323 26.6
2011-09-09 07:33:39 51°23.188 2°45.906 326.7 12.3 321 27.2
2011-09-09 07:33:44 51°23.201 2°45.888 325.2 12.3 320 27.3
2011-09-09 07:33:49 51°23.214 2°45.87 324.2 12.3 319 26.7
2011-09-09 07:33:53 51°23.225 2°45.856 323.4 12.3 319 25.6
2011-09-09 07:33:59 51°23.24 2°45.834 322.6 12.3 318 26.3
2011-09-09 07:34:04 51°23.253 2°45.816 322.4 12.2 319 26.5
2011-09-09 07:34:09 51°23.265 2°45.798 323.1 12.3 318 25.4
2011-09-09 07:34:13 51°23.275 2°45.783 322.4 12.3 318 26
2011-09-09 07:34:18 51°23.288 2°45.765 323.1 12.3 316 26.9
2011-09-09 07:34:24 51°23.303 2°45.742 321.4 12.3 317 27.6
2011-09-09 07:34:29 51°23.316 2°45.725 322.8 12.3 319 26.6
2011-09-09 07:34:33 51°23.325 2°45.71 322.9 12.3 317 26.5
2011-09-09 07:34:39 51°23.341 2°45.689 322.7 12.3 319 27.3
2011-09-09 07:34:44 51°23.354 2°45.671 323.6 12.3 318 27.5
2011-09-09 07:34:49 51°23.367 2°45.654 324.2 12.2 321 28.2
2011-09-09 07:34:54 51°23.38 2°45.636 324.9 12.3 320 27.8
2011-09-09 07:34:59 51°23.393 2°45.618 325.8 12.3 321 27.6
2011-09-09 07:35:04 51°23.406 2°45.601 326.4 12.3 321 28
2011-09-09 07:35:09 51°23.42 2°45.584 326.4 12.3 321 27.6
2011-09-09 07:35:13 51°23.43 2°45.571 326.9 12.3 322 27.2
2011-09-09 07:35:19 51°23.446 2°45.55 327.2 12.3 321 27.4
2011-09-09 07:35:24 51°23.46 2°45.533 326.8 12.3 321 27.8
2011-09-09 07:35:29 51°23.473 2°45.516 326.4 12.3 321 27.9
2011-09-09 07:35:34 51°23.486 2°45.498 326.5 12.2 319 27.7
2011-09-09 07:35:39 51°23.499 2°45.481 324.6 12.2 320 27.6
2011-09-09 07:35:44 51°23.511 2°45.463 324.5 12.2 319 27.6
2011-09-09 07:35:49 51°23.524 2°45.446 324.9 12.3 319 27.8
2011-09-09 07:35:53 51°23.535 2°45.431 324.2 12.3 318 27.8
2011-09-09 07:35:59 51°23.55 2°45.409 322.6 12.3 317 28.2
2011-09-09 07:36:04 51°23.562 2°45.389 321.6 12.3 315 27.4
2011-09-09 07:36:09 51°23.574 2°45.37 320.5 12.3 315 28
2011-09-09 07:36:13 51°23.583 2°45.354 320 12.3 314 27.7
2011-09-09 07:36:18 51°23.595 2°45.335 319.1 12.3 315 27.9
2011-09-09 07:36:24 51°23.61 2°45.312 319.4 12.3 315 27.5
2011-09-09 07:36:29 51°23.622 2°45.293 319.7 12.4 315 27.6
2011-09-09 07:36:33 51°23.632 2°45.277 319.6 12.3 315 27.3
2011-09-09 07:36:39 51°23.646 2°45.254 319.9 12.4 315 27.3
2011-09-09 07:36:44 51°23.658 2°45.235 320.3 12.3 316 27.4
2011-09-09 07:36:49 51°23.67 2°45.216 320.3 12.3 316 27.7
2011-09-09 07:36:53 51°23.68 2°45.201 321 12.3 317 28.1
2011-09-09 07:36:59 51°23.696 2°45.179 321.7 12.3 316 27.9
2011-09-09 07:37:04 51°23.708 2°45.159 321.1 12.3 316 28.3
2011-09-09 07:37:09 51°23.72 2°45.14 320.3 12.3 315 27.7
2011-09-09 07:37:13 51°23.73 2°45.125 319.9 12.4 315 26.9
2011-09-09 07:37:19 51°23.744 2°45.101 319.4 12.3 314 27.3
2011-09-09 07:37:24 51°23.755 2°45.081 318.5 12.3 313 27.5
2011-09-09 07:37:29 51°23.767 2°45.061 318 12.4 314 27.9
2011-09-09 07:37:34 51°23.779 2°45.041 317.9 12.3 314 27.7
2011-09-09 07:37:39 51°23.791 2°45.022 318.2 12.4 315 27.6
2011-09-09 07:37:44 51°23.803 2°45.003 319.4 12.4 315 28
2011-09-09 07:37:49 51°23.816 2°44.984 319.9 12.4 316 27.8
2011-09-09 07:37:53 51°23.825 2°44.969 320.2 12.4 316 28.2
2011-09-09 07:37:59 51°23.84 2°44.947 320.8 12.2 317 27.7
2011-09-09 07:38:04 51°23.853 2°44.928 320.9 12.3 318 27.7
2011-09-09 07:38:09 51°23.865 2°44.91 321.9 12.3 317 28.1
2011-09-09 07:38:13 51°23.875 2°44.895 321.4 12.3 318 27.4
2011-09-09 07:38:19 51°23.89 2°44.872 321.1 12.4 316 27.9
2011-09-09 07:38:24 51°23.902 2°44.853 320.3 12.3 316 27.9
2011-09-09 07:38:29 51°23.914 2°44.834 319.7 12.3 315 27.7
2011-09-09 07:38:33 51°23.924 2°44.818 319.2 12.3 315 27.9
2011-09-09 07:38:39 51°23.938 2°44.794 318 12.3 314 27.8
2011-09-09 07:38:43 51°23.948 2°44.779 318.3 12.3 315 27.6
2011-09-09 07:38:49 51°23.962 2°44.756 318.6 12.3 315 27.3
2011-09-09 07:38:53 51°23.972 2°44.741 319.4 12.2 317 26.5
2011-09-09 07:38:59 51°23.987 2°44.72 321.2 12.3 318 25.9
2011-09-09 07:39:04 51°24 2°44.702 321.7 12.3 320 26.8
2011-09-09 07:39:09 51°24.014 2°44.685 323.8 12.3 321 26.7
2011-09-09 07:39:13 51°24.024 2°44.672 325.8 12.3 323 26
2011-09-09 07:39:19 51°24.041 2°44.652 326.7 12.3 323 24.8
2011-09-09 07:39:24 51°24.055 2°44.637 328.2 12.2 326 24.6
2011-09-09 07:39:29 51°24.069 2°44.622 329.5 12.1 326 24.5
2011-09-09 07:39:33 51°24.08 2°44.61 330.7 12.2 326 24
2011-09-09 07:39:39 51°24.097 2°44.592 331.2 12.2 328 24
2011-09-09 07:39:44 51°24.112 2°44.578 332.2 12.2 329 24.9
2011-09-09 07:39:49 51°24.126 2°44.564 332.8 12.2 327 25.4
2011-09-09 07:39:53 51°24.137 2°44.552 332.1 12.2 328 25.4
2011-09-09 07:39:59 51°24.155 2°44.535 332 12.3 328 25.8
2011-09-09 07:40:04 51°24.169 2°44.52 332.1 12.3 327 26.1
2011-09-09 07:40:09 51°24.183 2°44.505 330.9 12.3 326 25.1
2011-09-09 07:40:13 51°24.194 2°44.492 330.4 12.3 326 23.7
2011-09-09 07:40:19 51°24.211 2°44.475 330.7 11.8 326 24.5
2011-09-09 07:40:24 51°24.224 2°44.461 330.3 11.3 325 25.5
2011-09-09 07:40:29 51°24.236 2°44.447 329.8 10.9 325 26.1
2011-09-09 07:40:33 51°24.245 2°44.435 329.2 10.4 323 26.6
2011-09-09 07:40:38 51°24.257 2°44.423 328.6 9.9 324 26.6
2011-09-09 07:40:44 51°24.269 2°44.407 328 9.5 323 26.4
2011-09-09 07:40:49 51°24.279 2°44.395 327.7 9.2 324 26.6
2011-09-09 07:40:53 51°24.287 2°44.386 328 8.9 324 25.2
2011-09-09 07:40:59 51°24.299 2°44.372 327.8 8.6 323 24.4
2011-09-09 07:41:04 51°24.308 2°44.361 327.8 8.4 322 23.1
2011-09-09 07:41:09 51°24.317 2°44.35 327.2 8.1 323 21.2
2011-09-09 07:41:13 51°24.324 2°44.342 327.4 7.9 323 20.2
2011-09-09 07:41:19 51°24.334 2°44.329 328.4 7.8 324 19.8
2011-09-09 07:41:23 51°24.341 2°44.321 328.9 7.6 324 20.3
2011-09-09 07:41:29 51°24.351 2°44.309 328.9 7.5 323 20.8
2011-09-09 07:41:33 51°24.358 2°44.301 328.9 7.5 324 20.9
2011-09-09 07:41:39 51°24.368 2°44.289 328.7 7.4 324 21.5
2011-09-09 07:41:44 51°24.376 2°44.28 329.3 7.4 325 22
2011-09-09 07:41:49 51°24.384 2°44.27 329.9 7.3 324 22
2011-09-09 07:41:53 51°24.391 2°44.263 330.1 7.3 325 22.1
2011-09-09 07:41:59 51°24.401 2°44.252 330.1 7.2 325 23.3
2011-09-09 07:42:04 51°24.409 2°44.242 330.4 7.2 325 22.9
2011-09-09 07:42:09 51°24.417 2°44.233 330.8 7.2 324 21.5
2011-09-09 07:42:13 51°24.423 2°44.225 330.3 7.2 324 20
2011-09-09 07:42:19 51°24.433 2°44.214 329.5 7.1 323 22.1
2011-09-09 07:42:24 51°24.44 2°44.204 328.6 7.1 322 22.7
2011-09-09 07:42:29 51°24.448 2°44.195 327.7 7.1 322 23.5
2011-09-09 07:42:33 51°24.454 2°44.187 327.1 7 322 24
2011-09-09 07:42:39 51°24.464 2°44.175 327 7 321 24.2
2011-09-09 07:42:44 51°24.471 2°44.165 326.9 7.1 322 24.7
2011-09-09 07:42:49 51°24.479 2°44.156 327.1 7.1 321 24.8
2011-09-09 07:42:53 51°24.485 2°44.148 326.5 7.1 321 25
2011-09-09 07:42:59 51°24.494 2°44.136 326.5 7.1 321 25.1
2011-09-09 07:43:04 51°24.502 2°44.126 326.2 7.1 320 25.8
2011-09-09 07:43:09 51°24.509 2°44.115 325.8 7.1 320 25.5
2011-09-09 07:43:13 51°24.515 2°44.107 325.6 7.1 319 25.8
2011-09-09 07:43:18 51°24.523 2°44.097 325 7.1 320 25.8
2011-09-09 07:43:24 51°24.532 2°44.085 324.6 7.1 320 25.7
2011-09-09 07:43:29 51°24.54 2°44.074 324.5 7.1 319 26
2011-09-09 07:43:33 51°24.546 2°44.067 324.6 7.1 319 26.2
2011-09-09 07:43:39 51°24.555 2°44.054 324.6 7.2 319 26.2
2011-09-09 07:43:44 51°24.562 2°44.044 324.3 7.2 320 26.4
2011-09-09 07:43:49 51°24.57 2°44.034 324.1 7.1 319 26.3
2011-09-09 07:43:54 51°24.577 2°44.023 324.2 7.1 319 26.6
2011-09-09 07:43:59 51°24.584 2°44.013 323.9 7.1 318 26.2
2011-09-09 07:44:04 51°24.592 2°44.002 323.6 7.1 318 26.1
2011-09-09 07:44:09 51°24.599 2°43.991 323.2 7.2 319 26.3
2011-09-09 07:44:13 51°24.605 2°43.983 323.1 7.1 317 26.5
2011-09-09 07:44:19 51°24.614 2°43.97 322.8 7.1 318 25.9
2011-09-09 07:44:24 51°24.621 2°43.959 322.7 7.1 317 26
2011-09-09 07:44:29 51°24.628 2°43.949 322.5 7.1 317 26
2011-09-09 07:44:33 51°24.634 2°43.94 322.2 7.1 317 25.7
2011-09-09 07:44:39 51°24.642 2°43.927 322 7.1 318 26.1
2011-09-09 07:44:44 51°24.65 2°43.917 322 7.1 318 25.6
2011-09-09 07:44:49 51°24.657 2°43.907 322.3 7.1 319 25.8
2011-09-09 07:44:53 51°24.663 2°43.899 322.8 7 319 25.2
2011-09-09 07:44:59 51°24.672 2°43.886 322.9 7 318 25.2
2011-09-09 07:45:04 51°24.679 2°43.875 322.2 6.9 316 25.2
2011-09-09 07:45:09 51°24.685 2°43.866 320.6 6.6 316 25.7
2011-09-09 07:45:13 51°24.69 2°43.857 320.3 6.3 314 25.8
2011-09-09 07:45:18 51°24.696 2°43.847 318.8 5.9 311 25.8
2011-09-09 07:45:24 51°24.701 2°43.835 316.4 5.5 308 25.6
2011-09-09 07:45:29 51°24.705 2°43.826 313.1 5.1 306 25.9
2011-09-09 07:45:33 51°24.708 2°43.819 311.4 4.8 302 25.9
2011-09-09 07:45:39 51°24.712 2°43.808 309 4.5 300 25.4
2011-09-09 07:45:43 51°24.714 2°43.802 306.9 4.1 298 25.4
2011-09-09 07:45:49 51°24.717 2°43.793 305.3 3.6 297 24.8
2011-09-09 07:45:53 51°24.718 2°43.788 304.3 3.1 297 24.5
2011-09-09 07:45:59 51°24.72 2°43.782 305.1 2.5 296 24.9
2011-09-09 07:46:04 51°24.721 2°43.778 307.8 2 295 24.7
2011-09-09 07:46:09 51°24.722 2°43.775 311 1.4 292 24.1
2011-09-09 07:46:13 51°24.722 2°43.773 314.7 0.9 278 23.8
2011-09-09 07:46:19 51°24.722 2°43.772 318.2 0.4 240 23.5
2011-09-09 07:46:24 51°24.721 2°43.772 320.8 0.9 201 23.6
2011-09-09 07:46:29 51°24.72 2°43.772 323.4 0.8 179 23.4
2011-09-09 07:46:34 51°24.719 2°43.772 326.2 0.7 183 23.4
2011-09-09 07:46:39 51°24.718 2°43.771 328.6 0.6 190 23.1
2011-09-09 07:46:43 51°24.717 2°43.771 330.8 0.6 197 22.8
2011-09-09 07:46:49 51°24.716 2°43.771 332.6 0.5 201 22.7
2011-09-09 07:46:53 51°24.716 2°43.77 334.1 0.5 214 22.5
2011-09-09 07:47:00 51°24.716 2°43.769 335.9 0.3 251 -999
2011-09-09 07:47:05 51°24.715 2°43.769 337.1 0.3 258 -999
2011-09-09 07:47:11 51°24.715 2°43.768 337.8 0.3 260 -999
2011-09-09 07:47:17 51°24.716 2°43.767 338.4 0.2 261 -999
2011-09-09 07:47:22 51°24.715 2°43.766 339 0.4 250 -999
2011-09-09 07:47:27 51°24.715 2°43.766 339.8 0.3 241 -999
2011-09-09 07:47:32 51°24.715 2°43.765 340.1 0.3 225 -999
2011-09-09 07:47:37 51°24.714 2°43.765 340.5 0.3 214 -999
2011-09-09 07:47:42 51°24.714 2°43.765 340.8 0.4 191 -999
2011-09-09 07:47:47 51°24.713 2°43.764 341.4 0.7 183 -999
2011-09-09 07:47:52 51°24.712 2°43.765 342.3 0.9 171 -999
2011-09-09 07:47:57 51°24.71 2°43.765 343.6 1.1 174 21.5
2011-09-09 07:48:02 51°24.708 2°43.766 344.4 1.3 175 -999
2011-09-09 07:48:07 51°24.707 2°43.766 346 1.4 174 4.8
2011-09-09 07:48:12 51°24.704 2°43.766 348.3 1.6 174 -999
2011-09-09 07:48:17 51°24.702 2°43.767 349.6 1.8 175 21.9
2011-09-09 07:48:22 51°24.699 2°43.767 351.6 2 176 -999
2011-09-09 07:48:27 51°24.696 2°43.767 353.5 2 179 -999
2011-09-09 07:48:32 51°24.693 2°43.767 355.2 2 178 -999
2011-09-09 07:48:37 51°24.69 2°43.767 356.8 1.9 179 -999
2011-09-09 07:48:42 51°24.688 2°43.767 358 1.9 177 -999
2011-09-09 07:48:47 51°24.685 2°43.767 359.8 1.9 181 -999
2011-09-09 07:48:52 51°24.683 2°43.767 1 1.8 182 -999
2011-09-09 07:48:57 51°24.68 2°43.767 1.6 1.7 181 -999
2011-09-09 07:49:02 51°24.678 2°43.767 2.2 1.8 182 -999
2011-09-09 07:49:07 51°24.675 2°43.767 3 1.8 183 22.7
2011-09-09 07:49:12 51°24.673 2°43.767 3.4 1.8 180 22.7
2011-09-09 07:49:17 51°24.67 2°43.766 4.1 1.7 183 22.8
2011-09-09 07:49:21 51°24.669 2°43.766 4.9 1.7 183 22.8
2011-09-09 07:49:26 51°24.666 2°43.766 5.5 1.6 183 23.3
2011-09-09 07:49:31 51°24.664 2°43.766 6.2 1.6 181 23.3
2011-09-09 07:49:36 51°24.662 2°43.766 6.6 1.6 183 23.7
2011-09-09 07:49:41 51°24.66 2°43.766 6.8 1.5 183 23.7
2011-09-09 07:49:45 51°24.658 2°43.766 7.5 1.4 181 23.7
2011-09-09 07:49:50 51°24.657 2°43.765 7.8 1.2 182 24
2011-09-09 07:49:55 51°24.655 2°43.766 7.9 0.9 177 24.3
2011-09-09 07:50:00 51°24.654 2°43.766 7.6 0.6 180 24.7
2011-09-09 07:50:05 51°24.654 2°43.766 6.5 0.4 162 24.7
2011-09-09 07:50:09 51°24.654 2°43.766 4.2 0.2 181 24.6
2011-09-09 07:50:14 51°24.654 2°43.766 1.6 0.1 91 24.7
2011-09-09 07:50:19 51°24.654 2°43.766 359.3 0.2 354 24.8
2011-09-09 07:50:24 51°24.654 2°43.766 356.7 0.4 342 24.6
2011-09-09 07:50:29 51°24.656 2°43.766 353.8 0.8 349 24.7
2011-09-09 07:50:33 51°24.657 2°43.765 349.2 1.1 337 24.5
2011-09-09 07:50:39 51°24.658 2°43.764 344 1.1 332 24.1
2011-09-09 07:50:44 51°24.66 2°43.762 339.7 1.2 321 24
2011-09-09 07:50:49 51°24.661 2°43.761 336.7 1.4 329 24.3
2011-09-09 07:50:53 51°24.663 2°43.759 332.6 1.4 314 24.5
2011-09-09 07:50:59 51°24.664 2°43.757 328.4 1.3 319 24.4
2011-09-09 07:51:04 51°24.665 2°43.754 325.4 1.3 308 24.4
2011-09-09 07:51:09 51°24.667 2°43.752 323.1 1.5 310 24.4
2011-09-09 07:51:13 51°24.668 2°43.75 320.8 1.6 312 24.5
2011-09-09 07:51:19 51°24.669 2°43.747 317.1 1.5 303 24.7
2011-09-09 07:51:24 51°24.671 2°43.744 314.3 1.5 304 24.6
2011-09-09 07:51:29 51°24.672 2°43.741 312.4 1.6 304 24.5
2011-09-09 07:51:33 51°24.673 2°43.738 310.2 1.5 302 24.3
2011-09-09 07:51:39 51°24.674 2°43.735 308.5 1.4 302 24.4
2011-09-09 07:51:44 51°24.675 2°43.733 307.5 1.4 300 24.2
2011-09-09 07:51:49 51°24.676 2°43.73 306.8 1.3 299 22.9
2011-09-09 07:51:53 51°24.676 2°43.728 306.5 1.2 297 22.7